Torrington, CT

2:47 AM EDT on November 01, 2014 (GMT -0400)
Crestwood | Change Station
CLOSE
Current Station
Personal Weather Station
Location: Torrington, CT
Elevation: 843 ft
Nearby Weather Stations

Elev 843 ft 41.81 °N, 73.10 °W | Updated 1 minute ago

Overcast
Overcast
42.8 °F
Feels Like 43 °F
N
1.0
Wind Variable Wind from ENE
Gusts 1.0 mph

Today
High -- | Low -- °F
--% Chance of Precip.
Yesterday
High -- | Low -- °F
Precip. -- in
7:24 AM 5:46 PM
Waxing Gibbous, 63% visible
Pressure 29.87 in
Visibility 10.0 miles
Clouds Mostly Cloudy 4400 ft
Overcast 7000 ft
Windchill 43 °F
Dew Point 38 °F
Humidity 84%
Rainfall 0.00 in
Snow Depth Not available.
UV 0 out of 12
Pollen .20 out of 12
Air Quality Not available.
Flu Activity Not available.
METAR KOXC 010635Z 03010G15KT 10SM BKN044 OVC070 06/01 A2987 RMK AO1

More Conditions Fewer Conditions

Pressure 29.87 in
Visibility 10.0 miles
Clouds Mostly Cloudy 4400 ft
Overcast 7000 ft
Windchill 43 °F
Dew Point 38 °F
Humidity 84%
Rainfall 0.00 in
Snow Depth Not available.
UV 0 out of 12
Pollen .20 out of 12
Air Quality Not available.
Flu Activity Not available.
METAR KOXC 010635Z 03010G15KT 10SM BKN044 OVC070 06/01 A2987 RMK AO1

More Conditions Fewer Conditions

10-Day Weather Forecast

Almanac

Astronomy

Nov. 01, 2014 Rise Set
Actual Time
Civil Twilight
Nautical Twilight
Astronomical Twilight
Moon
Length of Visible Light
Length of Day
Tomorrow will be .
, % of the Moon is Illuminated

Today's Extremes

State Highs State Lows

Community

WunderPhotos

Upload Photos

1,766,865 photos uploaded!

WunderBlogs® & News

Nearby

Air Quality

  Air Quality AQ Index Pollutant
Not available.

Snow Depth

Station Depth Elevation

Earthquake Activity

City Distance Mag. Time & Date
Minimum magnitude displayed is 2.5.

Coastal Water Temperatures

Place Temperature

Nearby Weather Stations